createdAt,value
2017-08-06T00:00:06.853Z,14.89
2017-08-06T00:01:06.804Z,14.88
2017-08-06T00:02:06.780Z,14.86
2017-08-06T00:03:06.755Z,14.85
2017-08-06T00:04:06.732Z,14.81
2017-08-06T00:05:06.716Z,14.78
2017-08-06T00:06:06.388Z,14.85
2017-08-06T00:07:06.668Z,14.84
2017-08-06T00:08:06.639Z,14.73
2017-08-06T00:09:06.624Z,14.77
2017-08-06T00:10:06.595Z,14.78
2017-08-06T00:11:07.031Z,14.69
2017-08-06T00:12:06.554Z,14.69
2017-08-06T00:13:06.530Z,14.62
2017-08-06T00:14:06.208Z,14.69
2017-08-06T00:15:06.481Z,14.72
2017-08-06T00:16:06.455Z,14.72
2017-08-06T00:17:06.434Z,14.72
2017-08-06T00:18:06.117Z,14.81
2017-08-06T00:19:06.393Z,14.84
2017-08-06T00:20:06.368Z,14.84
2017-08-06T00:21:06.348Z,14.82
2017-08-06T00:22:06.326Z,14.72
2017-08-06T00:23:06.300Z,14.72
2017-08-06T00:24:06.275Z,14.69
2017-08-06T00:25:06.298Z,14.72
2017-08-06T00:26:06.250Z,14.73
2017-08-06T00:27:06.203Z,14.69
2017-08-06T00:28:06.178Z,14.77
2017-08-06T00:29:06.168Z,14.73
2017-08-06T00:30:06.136Z,14.68
2017-08-06T00:31:06.114Z,14.72
2017-08-06T00:32:06.093Z,14.73
2017-08-06T00:33:06.072Z,14.7
2017-08-06T00:34:06.045Z,14.72
2017-08-06T00:35:06.024Z,14.7
2017-08-06T00:36:05.703Z,14.73
2017-08-06T00:37:05.677Z,14.69
2017-08-06T00:38:05.958Z,14.72
2017-08-06T00:39:05.636Z,14.6
2017-08-06T00:40:05.908Z,14.6
2017-08-06T00:41:05.881Z,14.65
2017-08-06T00:42:05.866Z,14.58
2017-08-06T00:43:05.832Z,14.62
2017-08-06T00:44:05.814Z,14.54
2017-08-06T00:45:05.495Z,14.58
2017-08-06T00:46:05.770Z,14.58
2017-08-06T00:47:05.452Z,14.45
2017-08-06T00:48:05.721Z,14.45
2017-08-06T00:49:05.695Z,14.54
2017-08-06T00:50:05.380Z,14.55
2017-08-06T00:51:05.662Z,14.5
2017-08-06T00:52:05.629Z,14.51
2017-08-06T00:53:05.307Z,14.5
2017-08-06T00:54:05.584Z,14.54
2017-08-06T00:55:05.560Z,14.51
2017-08-06T00:56:05.242Z,14.45
2017-08-06T00:57:05.513Z,14.48
2017-08-06T00:58:05.192Z,14.45
2017-08-06T00:59:05.468Z,14.36
2017-08-06T01:00:05.153Z,14.45
2017-08-06T01:01:05.423Z,14.44
2017-08-06T01:02:05.396Z,14.33
2017-08-06T01:03:05.080Z,14.35
2017-08-06T01:04:05.356Z,14.36
2017-08-06T01:05:05.332Z,14.37
2017-08-06T01:06:05.306Z,14.45
2017-08-06T01:07:05.284Z,14.35
2017-08-06T01:08:05.253Z,14.44
2017-08-06T01:09:05.236Z,14.37
2017-08-06T01:10:05.211Z,14.4
2017-08-06T01:11:05.194Z,14.43
2017-08-06T01:12:04.871Z,14.37
2017-08-06T01:13:04.850Z,14.33
2017-08-06T01:14:05.114Z,14.36
2017-08-06T01:15:04.799Z,14.4
2017-08-06T01:16:05.075Z,14.41
2017-08-06T01:17:05.051Z,14.33
2017-08-06T01:18:05.024Z,14.37
2017-08-06T01:19:05.005Z,14.37
2017-08-06T01:20:04.700Z,14.36
2017-08-06T01:21:04.959Z,14.36
2017-08-06T01:22:04.935Z,14.4
2017-08-06T01:23:04.905Z,14.36
2017-08-06T01:24:04.886Z,14.3
2017-08-06T01:25:04.571Z,14.32
2017-08-06T01:26:04.845Z,14.3
2017-08-06T01:27:04.816Z,14.26
2017-08-06T01:28:04.499Z,14.25
2017-08-06T01:29:04.770Z,14.23
2017-08-06T01:30:04.750Z,14.22
2017-08-06T01:31:04.723Z,14.22
2017-08-06T01:32:04.698Z,14.17
2017-08-06T01:33:04.679Z,14.08
2017-08-06T01:34:04.652Z,14.08
2017-08-06T01:35:04.626Z,14.11
2017-08-06T01:36:04.603Z,14.12
2017-08-06T01:37:04.582Z,14.1
2017-08-06T01:38:04.559Z,14.18
2017-08-06T01:39:04.533Z,14.08
2017-08-06T01:40:04.218Z,13.99
2017-08-06T01:41:04.489Z,14
2017-08-06T01:42:04.469Z,14.07
2017-08-06T01:43:04.445Z,14
2017-08-06T01:44:04.439Z,13.99
2017-08-06T01:45:04.100Z,14.07
2017-08-06T01:46:04.370Z,14.07
2017-08-06T01:47:04.353Z,13.96
2017-08-06T01:48:04.345Z,14.03
2017-08-06T01:49:04.306Z,14
2017-08-06T01:50:04.279Z,14.03
2017-08-06T01:51:04.253Z,14.05
2017-08-06T01:52:03.932Z,13.97
2017-08-06T01:53:03.907Z,14
2017-08-06T01:54:04.202Z,13.92
2017-08-06T01:55:04.166Z,13.93
2017-08-06T01:56:04.133Z,13.92
2017-08-06T01:57:04.116Z,13.89
2017-08-06T01:58:04.087Z,13.93
2017-08-06T01:59:04.060Z,13.9
2017-08-06T02:00:03.755Z,13.93
2017-08-06T02:01:04.021Z,13.89
2017-08-06T02:02:03.697Z,13.9
2017-08-06T02:03:03.671Z,13.89
2017-08-06T02:04:03.941Z,13.96
2017-08-06T02:05:03.919Z,13.97
2017-08-06T02:06:03.903Z,13.9
2017-08-06T02:07:03.870Z,13.9
2017-08-06T02:08:03.552Z,13.89
2017-08-06T02:09:03.831Z,13.9
2017-08-06T02:10:03.803Z,13.87
2017-08-06T02:11:03.777Z,13.87
2017-08-06T02:12:03.762Z,13.86
2017-08-06T02:13:03.733Z,13.85
2017-08-06T02:14:03.705Z,13.86
2017-08-06T02:15:03.683Z,13.85
2017-08-06T02:16:03.671Z,13.81
2017-08-06T02:17:03.635Z,13.78
2017-08-06T02:18:03.615Z,13.77
2017-08-06T02:19:03.595Z,13.72
2017-08-06T02:20:03.566Z,13.78
2017-08-06T02:21:03.540Z,13.78
2017-08-06T02:22:03.521Z,13.75
2017-08-06T02:23:03.495Z,13.78
2017-08-06T02:24:03.473Z,13.67
2017-08-06T02:25:03.153Z,13.71
2017-08-06T02:26:03.421Z,13.71
2017-08-06T02:27:03.404Z,13.6
2017-08-06T02:28:03.382Z,13.59
2017-08-06T02:29:03.356Z,13.68
2017-08-06T02:30:03.328Z,13.57
2017-08-06T02:31:03.306Z,13.59
2017-08-06T02:32:03.281Z,13.6
2017-08-06T02:33:03.268Z,13.68
2017-08-06T02:34:03.231Z,13.59
2017-08-06T02:35:02.913Z,13.52
2017-08-06T02:36:03.183Z,13.5
2017-08-06T02:37:03.160Z,13.5
2017-08-06T02:38:03.136Z,13.5
2017-08-06T02:39:02.813Z,13.44
2017-08-06T02:40:03.091Z,13.49
2017-08-06T02:41:02.772Z,13.5
2017-08-06T02:42:03.039Z,13.39
2017-08-06T02:43:03.021Z,13.35
2017-08-06T02:44:02.991Z,13.38
2017-08-06T02:45:02.972Z,13.41
2017-08-06T02:46:02.645Z,13.39
2017-08-06T02:47:02.920Z,13.33
2017-08-06T02:48:02.607Z,13.31
2017-08-06T02:49:02.877Z,13.31
2017-08-06T02:50:02.852Z,13.3
2017-08-06T02:51:02.831Z,13.3
2017-08-06T02:52:02.805Z,13.3
2017-08-06T02:53:02.771Z,13.16
2017-08-06T02:54:02.745Z,13.23
2017-08-06T02:55:02.429Z,13.22
2017-08-06T02:56:02.702Z,13.23
2017-08-06T02:57:02.673Z,13.2
2017-08-06T02:58:02.658Z,13.16
2017-08-06T02:59:02.628Z,13.11
2017-08-06T03:00:02.600Z,13.09
2017-08-06T03:01:02.581Z,13.04
2017-08-06T03:02:02.555Z,13.04
2017-08-06T03:03:02.531Z,13
2017-08-06T03:04:02.509Z,13.11
2017-08-06T03:05:02.499Z,13.03
2017-08-06T03:06:02.526Z,13.03
2017-08-06T03:07:02.169Z,13.01
2017-08-06T03:08:02.128Z,13.08
2017-08-06T03:09:02.417Z,13.03
2017-08-06T03:10:02.387Z,13
2017-08-06T03:11:02.062Z,13
2017-08-06T03:12:02.377Z,13
2017-08-06T03:13:02.456Z,12.94
2017-08-06T03:14:01.975Z,12.91
2017-08-06T03:15:02.261Z,12.94
2017-08-06T03:16:02.245Z,12.91
2017-08-06T03:17:02.284Z,12.83
2017-08-06T03:18:02.196Z,12.85
2017-08-06T03:19:02.193Z,12.85
2017-08-06T03:20:01.879Z,12.91
2017-08-06T03:21:02.138Z,12.83
2017-08-06T03:22:02.133Z,12.87
2017-08-06T03:23:02.072Z,12.8
2017-08-06T03:24:02.084Z,12.79
2017-08-06T03:25:02.031Z,12.83
2017-08-06T03:26:02.037Z,12.83
2017-08-06T03:27:01.964Z,12.85
2017-08-06T03:28:01.946Z,12.86
2017-08-06T03:29:01.908Z,12.85
2017-08-06T03:30:01.603Z,12.86
2017-08-06T03:31:01.868Z,12.85
2017-08-06T03:32:01.887Z,12.8
2017-08-06T03:33:01.816Z,12.86
2017-08-06T03:34:01.781Z,12.8
2017-08-06T03:35:01.507Z,12.86
2017-08-06T03:36:01.762Z,12.82
2017-08-06T03:37:01.473Z,12.82
2017-08-06T03:38:01.446Z,12.73
2017-08-06T03:39:01.394Z,12.82
2017-08-06T03:40:01.356Z,12.79
2017-08-06T03:41:01.345Z,12.82
2017-08-06T03:42:01.284Z,12.79
2017-08-06T03:43:01.581Z,12.8
2017-08-06T03:44:01.538Z,12.79
2017-08-06T03:45:01.520Z,12.8
2017-08-06T03:46:01.522Z,12.83
2017-08-06T03:47:01.456Z,12.73
2017-08-06T03:48:01.490Z,12.78
2017-08-06T03:49:01.460Z,12.78
2017-08-06T03:50:01.397Z,12.75
2017-08-06T03:51:01.363Z,12.76
2017-08-06T03:52:01.339Z,12.76
2017-08-06T03:53:01.311Z,12.78
2017-08-06T03:54:01.294Z,12.75
2017-08-06T03:55:01.263Z,12.79
2017-08-06T03:56:01.238Z,12.79
2017-08-06T03:57:01.213Z,12.8
2017-08-06T03:58:01.186Z,12.82
2017-08-06T03:59:01.168Z,12.78
2017-08-06T04:00:00.849Z,12.82
2017-08-06T04:01:01.115Z,12.76
2017-08-06T04:02:01.086Z,12.75
2017-08-06T04:03:01.079Z,12.79
2017-08-06T04:04:01.047Z,12.75
2017-08-06T04:05:01.014Z,12.76
2017-08-06T04:06:00.995Z,12.8
2017-08-06T04:07:00.971Z,12.86
2017-08-06T04:08:00.940Z,12.82
2017-08-06T04:09:00.920Z,12.73
2017-08-06T04:10:00.895Z,12.82
2017-08-06T04:11:00.877Z,12.78
2017-08-06T04:12:00.845Z,12.78
2017-08-06T04:13:00.827Z,12.83
2017-08-06T04:14:00.797Z,12.72
2017-08-06T04:15:00.695Z,12.83
2017-08-06T04:16:00.452Z,12.79
2017-08-06T04:17:00.723Z,12.72
2017-08-06T04:18:00.400Z,12.82
2017-08-06T04:19:00.673Z,12.79
2017-08-06T04:20:00.653Z,12.85
2017-08-06T04:21:00.623Z,12.78
2017-08-06T04:22:00.001Z,12.82
2017-08-06T04:23:00.577Z,12.82
2017-08-06T04:24:00.261Z,12.75
2017-08-06T04:25:00.527Z,12.78
2017-08-06T04:26:00.515Z,12.79
2017-08-06T04:27:00.481Z,12.82
2017-08-06T04:28:00.454Z,12.79
2017-08-06T04:29:00.423Z,12.72
2017-08-06T04:30:00.403Z,12.75
2017-08-06T04:31:00.381Z,12.78
2017-08-06T04:32:00.354Z,12.75
2017-08-06T04:33:00.033Z,12.8
2017-08-06T04:34:00.308Z,12.83
2017-08-06T04:35:00.285Z,12.78
2017-08-06T04:36:00.261Z,12.82
2017-08-06T04:37:00.241Z,12.75
2017-08-06T04:38:00.205Z,12.79
2017-08-06T04:39:00.187Z,12.79
2017-08-06T04:40:00.179Z,12.73
2017-08-06T04:41:00.133Z,12.79
2017-08-06T04:42:00.111Z,12.86
2017-08-06T04:43:00.082Z,12.78
2017-08-06T04:44:00.063Z,12.78
2017-08-06T04:45:00.040Z,12.78
2017-08-06T04:46:00.016Z,12.78
2017-08-06T04:46:59.990Z,12.85
2017-08-06T04:47:59.963Z,12.87
2017-08-06T04:48:59.642Z,12.86
2017-08-06T04:49:59.922Z,12.82
2017-08-06T04:50:59.892Z,12.86
2017-08-06T04:51:59.866Z,12.83
2017-08-06T04:52:59.844Z,12.87
2017-08-06T04:53:59.823Z,12.86
2017-08-06T04:54:59.791Z,12.8
2017-08-06T04:55:59.777Z,12.79
2017-08-06T04:56:59.751Z,12.76
2017-08-06T04:57:59.724Z,12.86
2017-08-06T04:58:59.696Z,12.87
2017-08-06T04:59:59.674Z,12.91
2017-08-06T05:00:59.055Z,12.9
2017-08-06T05:01:59.624Z,12.86
2017-08-06T05:02:59.602Z,12.94
2017-08-06T05:03:59.598Z,12.9
2017-08-06T05:04:59.552Z,12.9
2017-08-06T05:05:59.523Z,12.95
2017-08-06T05:06:59.503Z,12.93
2017-08-06T05:07:59.482Z,12.85
2017-08-06T05:08:59.455Z,12.86
2017-08-06T05:09:59.133Z,12.87
2017-08-06T05:10:58.820Z,12.91
2017-08-06T05:11:59.390Z,12.85
2017-08-06T05:12:59.359Z,12.98
2017-08-06T05:13:59.335Z,12.95
2017-08-06T05:14:59.312Z,12.93
2017-08-06T05:15:58.991Z,12.94
2017-08-06T05:16:58.964Z,12.95
2017-08-06T05:17:58.948Z,12.93
2017-08-06T05:18:59.219Z,13
2017-08-06T05:19:58.890Z,12.93
2017-08-06T05:20:59.168Z,12.97
2017-08-06T05:21:59.154Z,13.04
2017-08-06T05:22:59.122Z,12.98
2017-08-06T05:23:59.092Z,13.08
2017-08-06T05:24:59.068Z,12.98
2017-08-06T05:25:59.057Z,13.08
2017-08-06T05:26:59.019Z,13.05
2017-08-06T05:27:58.996Z,13.04
2017-08-06T05:28:58.975Z,13.05
2017-08-06T05:29:58.945Z,13.04
2017-08-06T05:30:58.973Z,13.16
2017-08-06T05:31:58.904Z,13.19
2017-08-06T05:32:58.880Z,13.13
2017-08-06T05:33:58.854Z,13.19
2017-08-06T05:34:58.834Z,13.18
2017-08-06T05:35:58.509Z,13.28
2017-08-06T05:36:58.785Z,13.3
2017-08-06T05:37:58.758Z,13.27
2017-08-06T05:38:58.438Z,13.31
2017-08-06T05:39:58.714Z,13.33
2017-08-06T05:40:58.689Z,13.37
2017-08-06T05:41:58.666Z,13.41
2017-08-06T05:42:58.644Z,13.44
2017-08-06T05:43:58.617Z,13.49
2017-08-06T05:44:58.593Z,13.44
2017-08-06T05:45:58.565Z,13.57
2017-08-06T05:46:58.548Z,13.62
2017-08-06T05:47:58.520Z,13.59
2017-08-06T05:48:58.499Z,13.63
2017-08-06T05:49:58.474Z,13.6
2017-08-06T05:50:58.453Z,13.62
2017-08-06T05:51:58.133Z,13.67
2017-08-06T05:52:58.407Z,13.72
2017-08-06T05:53:58.389Z,13.68
2017-08-06T05:54:58.356Z,13.77
2017-08-06T05:55:58.338Z,13.83
2017-08-06T05:56:58.313Z,13.87
2017-08-06T05:57:58.288Z,13.85
2017-08-06T05:58:58.266Z,13.92
2017-08-06T05:59:57.945Z,14.03
2017-08-06T06:00:58.221Z,14.1
2017-08-06T06:01:58.196Z,14.12
2017-08-06T06:02:58.175Z,14.17
2017-08-06T06:03:58.198Z,14.25
2017-08-06T06:04:58.133Z,14.32
2017-08-06T06:05:58.108Z,14.36
2017-08-06T06:06:58.092Z,14.33
2017-08-06T06:07:58.062Z,14.48
2017-08-06T06:08:58.039Z,14.47
2017-08-06T06:09:58.099Z,14.54
2017-08-06T06:10:57.992Z,14.6
2017-08-06T06:11:57.972Z,14.62
2017-08-06T06:12:58.038Z,14.65
2017-08-06T06:13:57.931Z,14.62
2017-08-06T06:14:57.907Z,14.68
2017-08-06T06:15:57.890Z,14.7
2017-08-06T06:16:57.870Z,14.69
2017-08-06T06:17:57.849Z,14.69
2017-08-06T06:18:57.832Z,14.77
2017-08-06T06:19:57.807Z,14.77
2017-08-06T06:20:57.785Z,14.78
2017-08-06T06:21:57.764Z,14.79
2017-08-06T06:22:57.746Z,14.89
2017-08-06T06:23:57.726Z,14.86
2017-08-06T06:24:57.706Z,14.88
2017-08-06T06:25:57.690Z,14.97
2017-08-06T06:26:57.670Z,14.92
2017-08-06T06:27:57.647Z,15.11
2017-08-06T06:28:57.626Z,15.03
2017-08-06T06:29:57.613Z,15.19
2017-08-06T06:30:57.588Z,15.21
2017-08-06T06:31:57.573Z,15.24
2017-08-06T06:32:57.553Z,15.33
2017-08-06T06:33:57.529Z,15.33
2017-08-06T06:34:57.510Z,15.31
2017-08-06T06:35:57.498Z,15.39
2017-08-06T06:36:57.487Z,15.31
2017-08-06T06:37:57.162Z,15.35
2017-08-06T06:38:57.442Z,15.42
2017-08-06T06:39:57.441Z,15.49
2017-08-06T06:40:57.398Z,15.44
2017-08-06T06:41:57.087Z,15.44
2017-08-06T06:42:57.369Z,15.36
2017-08-06T06:43:57.344Z,15.43
2017-08-06T06:44:57.324Z,15.42
2017-08-06T06:45:57.307Z,15.46
2017-08-06T06:46:57.342Z,15.44
2017-08-06T06:47:57.269Z,15.47
2017-08-06T06:48:57.250Z,15.51
2017-08-06T06:49:57.229Z,15.49
2017-08-06T06:50:57.216Z,15.58
2017-08-06T06:51:57.193Z,15.55
2017-08-06T06:52:57.175Z,15.61
2017-08-06T06:53:57.161Z,15.54
2017-08-06T06:54:57.139Z,15.55
2017-08-06T06:55:57.128Z,15.65
2017-08-06T06:56:57.108Z,15.67
2017-08-06T06:57:57.084Z,15.76
2017-08-06T06:58:57.063Z,15.83
2017-08-06T06:59:57.046Z,15.83
2017-08-06T07:00:57.030Z,15.75
2017-08-06T07:01:57.012Z,15.8
2017-08-06T07:02:56.994Z,15.83
2017-08-06T07:03:56.977Z,15.88
2017-08-06T07:04:56.952Z,15.91
2017-08-06T07:05:56.936Z,16.04
2017-08-06T07:06:56.916Z,16.05
2017-08-06T07:07:56.899Z,16.15
2017-08-06T07:08:56.585Z,16.24
2017-08-06T07:09:56.863Z,16.29
2017-08-06T07:10:57.226Z,16.46
2017-08-06T07:11:56.830Z,16.43
2017-08-06T07:12:56.815Z,16.43
2017-08-06T07:13:56.799Z,16.53
2017-08-06T07:14:56.779Z,16.49
2017-08-06T07:15:56.766Z,16.51
2017-08-06T07:16:56.454Z,16.51
2017-08-06T07:17:56.729Z,16.5
2017-08-06T07:18:56.717Z,16.46
2017-08-06T07:19:56.701Z,16.49
2017-08-06T07:20:56.680Z,16.56
2017-08-06T07:21:56.667Z,16.6
2017-08-06T07:22:56.652Z,16.64
2017-08-06T07:23:56.629Z,16.64
2017-08-06T07:24:56.616Z,16.83
2017-08-06T07:25:56.610Z,16.97
2017-08-06T07:26:56.633Z,16.99
2017-08-06T07:27:56.567Z,17.02
2017-08-06T07:28:56.550Z,17.14
2017-08-06T07:29:56.535Z,17.19
2017-08-06T07:30:56.523Z,17.36
2017-08-06T07:31:56.504Z,17.42
2017-08-06T07:32:56.487Z,17.54
2017-08-06T07:33:56.481Z,17.72
2017-08-06T07:34:56.462Z,17.74
2017-08-06T07:35:56.445Z,17.82
2017-08-06T07:36:56.430Z,17.87
2017-08-06T07:37:56.416Z,17.97
2017-08-06T07:38:56.403Z,18.08
2017-08-06T07:39:56.404Z,18.07
2017-08-06T07:40:56.078Z,18.03
2017-08-06T07:41:56.066Z,17.97
2017-08-06T07:42:56.054Z,17.98
2017-08-06T07:43:56.330Z,18.05
2017-08-06T07:44:56.316Z,18.16
2017-08-06T07:45:56.302Z,18.19
2017-08-06T07:46:55.995Z,18.2
2017-08-06T07:47:56.275Z,18.29
2017-08-06T07:48:56.265Z,18.28
2017-08-06T07:49:56.252Z,18.23
2017-08-06T07:50:56.237Z,18.19
2017-08-06T07:51:56.233Z,18.2
2017-08-06T07:52:56.209Z,17.97
2017-08-06T07:53:56.197Z,17.71
2017-08-06T07:54:56.181Z,17.78
2017-08-06T07:55:55.871Z,17.74
2017-08-06T07:56:56.158Z,17.72
2017-08-06T07:57:56.137Z,17.76
2017-08-06T07:58:55.827Z,17.82
2017-08-06T07:59:56.117Z,17.87
2017-08-06T08:00:56.097Z,17.79
2017-08-06T08:01:56.079Z,17.79
2017-08-06T08:02:56.073Z,17.82
2017-08-06T08:03:56.098Z,17.86
2017-08-06T08:04:56.038Z,17.97
2017-08-06T08:05:56.019Z,18.16
2017-08-06T08:06:56.005Z,18.26
2017-08-06T08:07:55.992Z,18.43
2017-08-06T08:08:55.973Z,18.59
2017-08-06T08:09:55.665Z,18.6
2017-08-06T08:10:55.946Z,18.8
2017-08-06T08:11:55.935Z,18.75
2017-08-06T08:12:55.925Z,18.88
2017-08-06T08:13:55.905Z,18.92
2017-08-06T08:14:55.894Z,19.11
2017-08-06T08:15:55.884Z,19.22
2017-08-06T08:16:55.579Z,19.21
2017-08-06T08:17:55.863Z,19.37
2017-08-06T08:18:55.549Z,19.52
2017-08-06T08:19:55.840Z,19.74
2017-08-06T08:20:55.523Z,19.81
2017-08-06T08:21:55.805Z,19.77
2017-08-06T08:22:55.793Z,20.03
2017-08-06T08:23:55.787Z,20.14
2017-08-06T08:24:55.771Z,20.18
2017-08-06T08:25:55.762Z,20.21
2017-08-06T08:26:55.749Z,20.21
2017-08-06T08:27:55.739Z,20.16
2017-08-06T08:28:55.728Z,20.06
2017-08-06T08:29:55.718Z,20.04
2017-08-06T08:30:55.709Z,20.14
2017-08-06T08:31:55.692Z,20.22
2017-08-06T08:32:55.681Z,20.32
2017-08-06T08:33:55.665Z,20.41
2017-08-06T08:34:55.662Z,20.55
2017-08-06T08:35:55.649Z,20.7
2017-08-06T08:36:55.640Z,20.74
2017-08-06T08:37:55.626Z,21.02
2017-08-06T08:38:55.613Z,21.2
2017-08-06T08:39:55.603Z,21.14
2017-08-06T08:40:55.594Z,21.17
2017-08-06T08:41:55.580Z,21.27
2017-08-06T08:42:55.573Z,21.25
2017-08-06T08:43:55.567Z,21.42
2017-08-06T08:44:55.561Z,21.39
2017-08-06T08:45:55.542Z,21.37
2017-08-06T08:46:55.234Z,21.55
2017-08-06T08:47:55.522Z,21.55
2017-08-06T08:48:55.512Z,21.29
2017-08-06T08:49:55.500Z,21.12
2017-08-06T08:50:55.492Z,21.03
2017-08-06T08:51:55.478Z,21.33
2017-08-06T08:52:55.470Z,21.4
2017-08-06T08:53:55.457Z,21.69
2017-08-06T08:54:55.859Z,21.89
2017-08-06T08:55:55.138Z,22.15
2017-08-06T08:56:55.845Z,22.29
2017-08-06T08:57:55.225Z,22.3
2017-08-06T08:58:55.407Z,22.25
2017-08-06T08:59:55.770Z,22.11
2017-08-06T09:00:55.386Z,22.26
2017-08-06T09:01:55.371Z,22.36
2017-08-06T09:02:56.101Z,22.6
2017-08-06T09:03:55.362Z,22.8
2017-08-06T09:04:55.342Z,22.9
2017-08-06T09:05:55.337Z,23.21
2017-08-06T09:06:55.331Z,23.27
2017-08-06T09:07:55.334Z,23.41
2017-08-06T09:08:55.306Z,23.68
2017-08-06T09:09:55.295Z,23.73
2017-08-06T09:10:55.292Z,23.8
2017-08-06T09:11:55.292Z,23.8
2017-08-06T09:12:55.662Z,23.81
2017-08-06T09:13:55.258Z,23.98
2017-08-06T09:14:55.392Z,24.02
2017-08-06T09:15:54.953Z,23.99
2017-08-06T09:16:54.937Z,24.21
2017-08-06T09:17:55.232Z,24.38
2017-08-06T09:18:55.221Z,24.3
2017-08-06T09:19:55.210Z,23.76
2017-08-06T09:20:55.212Z,23.48
2017-08-06T09:21:54.597Z,23.48
2017-08-06T09:22:54.591Z,23.73
2017-08-06T09:23:54.881Z,23.71
2017-08-06T09:24:55.173Z,23.81
2017-08-06T09:25:55.156Z,24.3
2017-08-06T09:26:55.151Z,24.78
2017-08-06T09:27:55.178Z,25.31
2017-08-06T09:28:55.136Z,25.7
2017-08-06T09:29:55.120Z,26.09
2017-08-06T09:30:54.821Z,26.37
2017-08-06T09:31:55.108Z,26.48
2017-08-06T09:32:54.801Z,26.58
2017-08-06T09:33:54.797Z,26.26
2017-08-06T09:34:55.087Z,25.84
2017-08-06T09:35:55.076Z,25.69
2017-08-06T09:36:55.082Z,25.72
2017-08-06T09:37:55.070Z,25.73
2017-08-06T09:38:54.756Z,25.35
2017-08-06T09:39:54.749Z,24.81
2017-08-06T09:40:54.738Z,24.13
2017-08-06T09:41:55.028Z,23.55
2017-08-06T09:42:54.724Z,23.34
2017-08-06T09:43:55.013Z,23.58
2017-08-06T09:44:54.702Z,24.02
2017-08-06T09:45:54.991Z,24.69
2017-08-06T09:46:54.980Z,25.5
2017-08-06T09:47:54.970Z,25.8
2017-08-06T09:48:54.975Z,26.23
2017-08-06T09:49:54.955Z,26.65
2017-08-06T09:50:54.656Z,27.05
2017-08-06T09:51:54.941Z,27.44
2017-08-06T09:52:54.937Z,27.75
2017-08-06T09:53:54.923Z,27.82
2017-08-06T09:54:54.621Z,28.05
2017-08-06T09:55:54.616Z,28.11
2017-08-06T09:56:54.903Z,28.1
2017-08-06T09:57:54.600Z,28.17
2017-08-06T09:58:54.883Z,28.19
2017-08-06T09:59:54.587Z,28.35
2017-08-06T10:00:54.873Z,28.62
2017-08-06T10:01:54.870Z,28.25
2017-08-06T10:02:54.859Z,27.48
2017-08-06T10:03:54.868Z,26.77
2017-08-06T10:04:54.852Z,26.18
2017-08-06T10:05:54.841Z,26.07
2017-08-06T10:06:54.540Z,26.03
2017-08-06T10:07:54.537Z,26.1
2017-08-06T10:08:54.823Z,26.22
2017-08-06T10:09:54.818Z,26.55
2017-08-06T10:10:54.810Z,26.56
2017-08-06T10:11:54.848Z,26.55
2017-08-06T10:12:54.797Z,26.71
2017-08-06T10:13:54.783Z,26.85
2017-08-06T10:14:54.783Z,26.63
2017-08-06T10:15:54.775Z,26.36
2017-08-06T10:16:54.766Z,25.95
2017-08-06T10:17:54.466Z,25.7
2017-08-06T10:18:54.755Z,25.47
2017-08-06T10:19:54.458Z,25.23
2017-08-06T10:20:54.766Z,24.99
2017-08-06T10:21:54.744Z,24.69
2017-08-06T10:22:54.441Z,24.47
2017-08-06T10:23:54.724Z,24.02
2017-08-06T10:24:54.726Z,23.78
2017-08-06T10:25:54.717Z,23.56
2017-08-06T10:26:54.426Z,23.5
2017-08-06T10:27:54.709Z,23.36
2017-08-06T10:28:54.698Z,23.2
2017-08-06T10:29:54.909Z,23.03
2017-08-06T10:30:54.689Z,22.88
2017-08-06T10:31:54.687Z,22.72
2017-08-06T10:32:54.673Z,22.57
2017-08-06T10:33:54.671Z,22.33
2017-08-06T10:34:54.665Z,22.25
2017-08-06T10:35:54.656Z,22.14
2017-08-06T10:36:54.649Z,22.1
2017-08-06T10:37:54.645Z,22.1
2017-08-06T10:38:54.633Z,22.14
2017-08-06T10:39:54.632Z,22.13
2017-08-06T10:40:54.325Z,22.14
2017-08-06T10:41:54.319Z,22.14
2017-08-06T10:42:54.313Z,22.13
2017-08-06T10:43:54.605Z,22.11
2017-08-06T10:44:54.590Z,22.15
2017-08-06T10:45:54.582Z,22.15
2017-08-06T10:46:54.572Z,22.15
2017-08-06T10:47:54.583Z,22.18
2017-08-06T10:48:54.266Z,22.04
2017-08-06T10:49:54.552Z,21.92
2017-08-06T10:50:54.543Z,21.72
2017-08-06T10:51:54.535Z,21.54
2017-08-06T10:52:53.924Z,21.36
2017-08-06T10:53:54.508Z,21.4
2017-08-06T10:54:54.499Z,21.42
2017-08-06T10:55:54.492Z,21.52
2017-08-06T10:56:54.482Z,21.64
2017-08-06T10:57:54.466Z,21.76
2017-08-06T10:58:54.463Z,21.88
2017-08-06T10:59:54.149Z,21.91
2017-08-06T11:00:54.437Z,21.92
2017-08-06T11:01:54.132Z,21.93
2017-08-06T11:02:54.468Z,22.1
2017-08-06T11:03:54.405Z,22
2017-08-06T11:04:54.098Z,22.13
2017-08-06T11:05:54.092Z,22.2
2017-08-06T11:06:53.786Z,22.28
2017-08-06T11:07:54.369Z,22.25
2017-08-06T11:08:54.357Z,22.2
2017-08-06T11:09:54.344Z,22.17
2017-08-06T11:10:54.504Z,22.04
2017-08-06T11:11:54.025Z,22.04
2017-08-06T11:12:54.310Z,21.95
2017-08-06T11:13:54.568Z,21.82
2017-08-06T11:14:54.283Z,21.77
2017-08-06T11:15:54.270Z,21.92
2017-08-06T11:16:54.260Z,22.04
2017-08-06T11:17:53.654Z,22.08
2017-08-06T11:18:54.238Z,22.11
2017-08-06T11:19:54.239Z,22.11
2017-08-06T11:20:53.920Z,22.15
2017-08-06T11:21:53.902Z,22.25
2017-08-06T11:22:54.188Z,22.25
2017-08-06T11:23:53.882Z,22.17
2017-08-06T11:24:54.167Z,22.18
2017-08-06T11:25:53.857Z,22.15
2017-08-06T11:26:53.843Z,22.29
2017-08-06T11:27:54.128Z,22.32
2017-08-06T11:28:54.113Z,22.28
2017-08-06T11:29:54.100Z,22.28
2017-08-06T11:30:54.101Z,22.3
2017-08-06T11:31:53.786Z,22.23
2017-08-06T11:32:54.076Z,22.25
2017-08-06T11:33:54.058Z,22.18
2017-08-06T11:34:54.044Z,22.08
2017-08-06T11:35:53.735Z,22.08
2017-08-06T11:36:53.729Z,22.02
2017-08-06T11:37:53.712Z,21.82
2017-08-06T11:38:53.696Z,21.66
2017-08-06T11:39:53.692Z,21.64
2017-08-06T11:40:53.673Z,21.54
2017-08-06T11:41:53.952Z,21.5
2017-08-06T11:42:53.942Z,21.29
2017-08-06T11:43:53.927Z,21.05
2017-08-06T11:44:53.612Z,21
2017-08-06T11:45:53.601Z,21.11
2017-08-06T11:46:53.586Z,21.27
2017-08-06T11:47:53.883Z,21.37
2017-08-06T11:48:53.854Z,21.51
2017-08-06T11:49:53.543Z,21.61
2017-08-06T11:50:53.831Z,21.67
2017-08-06T11:51:53.516Z,21.75
2017-08-06T11:52:53.794Z,21.62
2017-08-06T11:53:53.779Z,21.64
2017-08-06T11:54:53.471Z,21.62
2017-08-06T11:55:53.459Z,21.64
2017-08-06T11:56:53.746Z,21.69
2017-08-06T11:57:53.728Z,21.79
2017-08-06T11:58:53.711Z,21.92
2017-08-06T11:59:53.697Z,22
2017-08-06T12:00:53.390Z,22.04
2017-08-06T12:01:53.695Z,22.13
2017-08-06T12:02:53.365Z,22.25
2017-08-06T12:03:53.643Z,22.26
2017-08-06T12:04:53.629Z,22.41
2017-08-06T12:05:53.325Z,22.48
2017-08-06T12:06:53.600Z,22.55
2017-08-06T12:07:53.289Z,22.6
2017-08-06T12:08:53.578Z,22.62
2017-08-06T12:09:53.560Z,22.73
2017-08-06T12:10:53.544Z,22.91
2017-08-06T12:11:53.242Z,22.96
2017-08-06T12:12:53.524Z,23
2017-08-06T12:13:54.134Z,23.05
2017-08-06T12:14:53.494Z,22.99
2017-08-06T12:15:53.489Z,23.06
2017-08-06T12:16:53.474Z,23.05
2017-08-06T12:17:53.454Z,23
2017-08-06T12:18:53.447Z,23.06
2017-08-06T12:19:53.440Z,23.02
2017-08-06T12:20:53.422Z,22.72
2017-08-06T12:21:53.108Z,22.54
2017-08-06T12:22:53.393Z,22.44
2017-08-06T12:23:53.379Z,22.45
2017-08-06T12:24:53.366Z,22.28
2017-08-06T12:25:53.348Z,22.29
2017-08-06T12:26:53.039Z,22.35
2017-08-06T12:27:53.326Z,22.38
2017-08-06T12:28:53.305Z,22.43
2017-08-06T12:29:53.048Z,22.47
2017-08-06T12:30:52.987Z,22.26
2017-08-06T12:31:52.974Z,22.26
2017-08-06T12:32:52.960Z,22.14
2017-08-06T12:33:53.273Z,22.1
2017-08-06T12:34:53.233Z,21.85
2017-08-06T12:35:53.209Z,21.72
2017-08-06T12:36:53.209Z,21.69
2017-08-06T12:37:53.183Z,21.62
2017-08-06T12:38:53.164Z,21.67
2017-08-06T12:39:53.150Z,21.7
2017-08-06T12:40:53.154Z,21.79
2017-08-06T12:41:52.828Z,21.76
2017-08-06T12:42:53.113Z,21.91
2017-08-06T12:43:53.100Z,21.83
2017-08-06T12:44:53.083Z,21.79
2017-08-06T12:45:53.070Z,21.76
2017-08-06T12:46:53.059Z,21.73
2017-08-06T12:47:53.039Z,21.69
2017-08-06T12:48:52.726Z,21.6
2017-08-06T12:49:52.719Z,21.66
2017-08-06T12:50:53.002Z,21.62
2017-08-06T12:51:52.981Z,21.76
2017-08-06T12:52:52.967Z,21.77
2017-08-06T12:53:52.966Z,21.8
2017-08-06T12:54:52.933Z,21.8
2017-08-06T12:55:52.624Z,21.92